Main page
METAR-TAF:

METAR-TAF

Airports :

Holbeach, England

RAF Holbeach

latitude: 52-52N, longitude: 000-09E, elevation: 3 m

Current weather observation

The report was made 8 hours and 1 minutes ago, at 09:50 UTC
Wind 10 kt from the North
Temperature 10°C
Humidity 71%
Pressure 1017 hPa
Visibility 10 km or more
Few clouds at a height of 3000 ft
Scattered clouds at a height of 3500 ft

METAR: EGYH 280950Z 35010KT 9999 FEW030 SCT035 10/05 Q1017 BLU

Time: 18:51 (17:51 UTC)


TAF: missing

Weather observations and forecasts of more than 4000 airports (METAR and TAF reports).

The available stations are represented by yellow and red dots on the map.

Hover mouse over dot to see the name of the station.

Then click to see weather observations and forecasts.

To change the map : click on the green buttons with a black cross to zoom in, on the green button with a dash to zoom out, or on the green arrows for adjacent maps.


METAR-TAF: